Time;durP1;ratioP1;P1;durP2;ratioP2;P2;SDS_P1;SDS_P2;PMS_P1;PMS_P2;Temp;Humidity;BMP_temperature;BMP_pressure;BME280_temperature;BME280_humidity;BME280_pressure;Samples;Min_cycle;Max_cycle;Signal;HPM_P1;HPM_P2
2023/06/01 00:00:10;;;;;;;14.60;8.52;;;;;;;;;;5121293;27;20027;-79
2023/06/01 00:02:35;;;;;;;12.90;7.38;;;;;;;;;;5119920;27;20118;-77
2023/06/01 00:05:01;;;;;;;15.75;8.48;;;;;;;;;;5118991;27;20103;-77
2023/06/01 00:07:26;;;;;;;14.65;7.80;;;;;;;;;;5123114;27;20055;-76
2023/06/01 00:09:51;;;;;;;12.45;7.47;;;;;;;;;;5121329;27;20019;-78
2023/06/01 00:12:17;;;;;;;10.35;7.00;;;;;;;;;;5122983;27;20023;-77
2023/06/01 00:14:42;;;;;;;15.93;7.57;;;;;;;;;;5120299;27;20107;-77
2023/06/01 00:17:09;;;;;;;10.45;6.80;;;;;;;;;;5103618;27;20109;-78
2023/06/01 00:19:34;;;;;;;9.45;7.70;;;;;;;;;;5119677;27;20035;-78
2023/06/01 00:22:00;;;;;;;10.82;8.27;;;;;;;;;;5108163;27;20557;-78
2023/06/01 00:24:25;;;;;;;11.95;7.85;;;;;;;;;;5108338;27;20327;-78
2023/06/01 00:26:51;;;;;;;11.13;7.75;;;;;;;;;;5118673;27;20046;-78
2023/06/01 00:29:16;;;;;;;9.02;6.93;;;;;;;;;;5123692;27;20374;-77
2023/06/01 00:31:42;;;;;;;11.43;6.90;;;;;;;;;;5116660;27;20024;-78
2023/06/01 00:34:08;;;;;;;7.65;6.88;;;;;;;;;;5120557;27;20062;-79
2023/06/01 00:36:33;;;;;;;12.73;7.65;;;;;;;;;;5106224;27;20027;-78
2023/06/01 00:39:02;;;;;;;11.98;7.20;;;;;;;;;;5122025;27;20066;-77
2023/06/01 00:41:28;;;;;;;11.80;6.95;;;;;;;;;;5113961;27;20023;-76
2023/06/01 00:43:53;;;;;;;9.55;7.38;;;;;;;;;;5108142;27;20027;-77
2023/06/01 00:46:19;;;;;;;15.18;8.98;;;;;;;;;;5120696;27;20031;-78
2023/06/01 00:48:44;;;;;;;28.60;18.20;;;;;;;;;;5121063;27;20113;-78
2023/06/01 00:51:11;;;;;;;36.53;19.88;;;;;;;;;;5120223;27;20022;-79
2023/06/01 00:53:36;;;;;;;19.83;12.68;;;;;;;;;;5103631;27;20402;-78
2023/06/01 00:56:02;;;;;;;16.17;11.65;;;;;;;;;;5120823;27;20062;-76
2023/06/01 00:58:27;;;;;;;15.93;10.63;;;;;;;;;;5111528;27;20476;-76
2023/06/01 01:00:53;;;;;;;17.63;12.10;;;;;;;;;;5106144;27;20019;-78
2023/06/01 01:03:21;;;;;;;10.98;8.80;;;;;;;;;;5119677;27;20064;-78
2023/06/01 01:05:47;;;;;;;11.93;7.10;;;;;;;;;;5104867;27;20028;-79
2023/06/01 01:08:17;;;;;;;8.90;6.78;;;;;;;;;;5118079;27;20057;-78
2023/06/01 01:10:50;;;;;;;9.48;7.25;;;;;;;;;;5118576;27;20019;-77
2023/06/01 01:13:20;;;;;;;8.23;6.63;;;;;;;;;;5120618;27;20084;-78
2023/06/01 01:15:45;;;;;;;;;;;;;;;;;;5120779;27;20038;-78
2023/06/01 01:18:21;;;;;;;10.40;7.53;;;;;;;;;;5116800;27;21618;-78
2023/06/01 01:20:52;;;;;;;14.60;7.55;;;;;;;;;;5116971;27;20035;-76
2023/06/01 01:23:36;;;;;;;9.05;8.05;;;;;;;;;;5104289;27;20088;-78
2023/06/01 01:26:36;;;;;;;13.70;7.07;;;;;;;;;;5115845;27;20098;-79
2023/06/01 01:29:05;;;;;;;14.20;8.32;;;;;;;;;;5024361;28;20035;-75
2023/06/01 01:31:32;;;;;;;9.93;7.60;;;;;;;;;;5017483;28;20615;-78
2023/06/01 01:33:58;;;;;;;12.07;7.55;;;;;;;;;;5024473;28;20064;-76
2023/06/01 01:36:23;;;;;;;13.82;7.88;;;;;;;;;;5024876;28;20453;-79
2023/06/01 01:38:49;;;;;;;11.75;8.48;;;;;;;;;;5017588;28;20045;-78
2023/06/01 01:41:15;;;;;;;9.95;7.57;;;;;;;;;;5024076;28;20116;-78
2023/06/01 01:43:41;;;;;;;12.07;6.50;;;;;;;;;;5012264;28;20116;-77
2023/06/01 01:46:25;;;;;;;10.57;6.78;;;;;;;;;;5023155;28;20120;-79
2023/06/01 01:49:11;;;;;;;8.98;6.95;;;;;;;;;;5017490;28;20086;-77
2023/06/01 01:51:40;;;;;;;10.32;7.38;;;;;;;;;;4984980;28;20503;-77
2023/06/01 01:54:07;;;;;;;11.45;7.43;;;;;;;;;;5026363;28;20468;-78
2023/06/01 01:56:35;;;;;;;13.23;7.75;;;;;;;;;;5024211;28;20060;-78
2023/06/01 01:59:00;;;;;;;10.88;8.32;;;;;;;;;;5016722;28;20025;-79
2023/06/01 02:01:26;;;;;;;11.15;8.27;;;;;;;;;;5025159;28;20106;-78
2023/06/01 02:03:58;;;;;;;8.15;6.90;;;;;;;;;;5101433;27;20040;-78
2023/06/01 02:06:23;;;;;;;9.82;6.97;;;;;;;;;;5120168;27;20035;-78
2023/06/01 02:08:49;;;;;;;9.00;7.68;;;;;;;;;;5116158;27;20066;-78
2023/06/01 02:11:14;;;;;;;13.35;8.55;;;;;;;;;;5120447;27;20019;-80
2023/06/01 02:13:40;;;;;;;11.25;7.47;;;;;;;;;;5118572;27;20432;-78
2023/06/01 02:16:05;;;;;;;8.43;6.43;;;;;;;;;;5118272;27;20131;-79
2023/06/01 02:18:31;;;;;;;12.70;7.82;;;;;;;;;;5120307;27;20029;-79
2023/06/01 02:20:57;;;;;;;9.82;7.13;;;;;;;;;;5120175;27;20031;-80
2023/06/01 02:23:22;;;;;;;9.70;5.50;;;;;;;;;;5120099;27;20397;-79
2023/06/01 02:25:47;;;;;;;12.75;6.53;;;;;;;;;;5118707;27;20059;-79
2023/06/01 02:28:13;;;;;;;10.05;7.07;;;;;;;;;;5119121;27;20031;-77
2023/06/01 02:30:38;;;;;;;13.57;7.00;;;;;;;;;;5120225;27;20031;-79
2023/06/01 02:33:03;;;;;;;10.30;6.60;;;;;;;;;;5112337;27;20055;-79
2023/06/01 02:35:29;;;;;;;11.68;6.20;;;;;;;;;;5111020;27;20019;-77
2023/06/01 02:37:55;;;;;;;11.00;6.53;;;;;;;;;;5116930;27;20023;-79
2023/06/01 02:40:20;;;;;;;7.40;6.15;;;;;;;;;;5118399;27;20457;-79
2023/06/01 02:42:45;;;;;;;6.95;6.20;;;;;;;;;;5118040;27;20021;-79
2023/06/01 02:45:11;;;;;;;7.80;6.53;;;;;;;;;;5119439;27;20331;-80
2023/06/01 02:47:36;;;;;;;10.63;6.88;;;;;;;;;;5118888;27;20042;-78
2023/06/01 02:50:01;;;;;;;12.32;6.95;;;;;;;;;;5120172;27;20035;-80
2023/06/01 02:52:27;;;;;;;10.27;6.10;;;;;;;;;;5111552;27;20057;-78
2023/06/01 02:54:52;;;;;;;9.60;6.00;;;;;;;;;;5096480;27;20025;-79
2023/06/01 02:57:18;;;;;;;12.32;6.85;;;;;;;;;;5115540;27;20368;-78
2023/06/01 02:59:43;;;;;;;9.80;6.43;;;;;;;;;;5116613;27;20379;-79
2023/06/01 03:02:08;;;;;;;10.43;6.45;;;;;;;;;;5118066;27;20047;-79
2023/06/01 03:04:34;;;;;;;9.90;6.38;;;;;;;;;;5116411;27;20031;-77
2023/06/01 03:07:01;;;;;;;11.80;6.90;;;;;;;;;;5113706;27;20043;-80
2023/06/01 03:09:26;;;;;;;14.68;7.18;;;;;;;;;;5114951;27;20369;-78
2023/06/01 03:11:51;;;;;;;11.25;6.70;;;;;;;;;;5119924;27;20028;-79
2023/06/01 03:14:17;;;;;;;7.55;6.60;;;;;;;;;;5119153;27;20055;-78
2023/06/01 03:16:42;;;;;;;15.07;7.97;;;;;;;;;;5117897;27;20058;-78
2023/06/01 03:19:07;;;;;;;10.80;8.02;;;;;;;;;;5105943;28;20070;-79
2023/06/01 03:21:33;;;;;;;11.55;7.30;;;;;;;;;;5113746;28;20055;-79
2023/06/01 03:23:59;;;;;;;9.38;7.45;;;;;;;;;;5118490;28;20123;-78
2023/06/01 03:26:24;;;;;;;14.48;8.50;;;;;;;;;;5118458;28;20138;-79
2023/06/01 03:28:50;;;;;;;14.52;9.60;;;;;;;;;;5117296;28;20031;-79
2023/06/01 03:31:15;;;;;;;17.65;10.57;;;;;;;;;;5111805;28;20047;-76
2023/06/01 03:33:41;;;;;;;13.48;10.57;;;;;;;;;;5101812;28;20518;-78
2023/06/01 03:36:07;;;;;;;12.48;10.57;;;;;;;;;;5117034;28;20027;-77
2023/06/01 03:38:32;;;;;;;15.13;10.55;;;;;;;;;;5116227;28;20110;-78
2023/06/01 03:40:58;;;;;;;14.70;11.38;;;;;;;;;;5119256;28;20154;-78
2023/06/01 03:43:23;;;;;;;13.70;11.27;;;;;;;;;;5101912;28;20042;-80
2023/06/01 03:45:48;;;;;;;14.10;10.88;;;;;;;;;;5095568;28;20035;-78
2023/06/01 03:48:14;;;;;;;13.18;11.35;;;;;;;;;;5113245;28;20027;-79
2023/06/01 03:50:39;;;;;;;14.88;11.88;;;;;;;;;;5114494;28;20027;-78
2023/06/01 03:53:04;;;;;;;13.80;12.20;;;;;;;;;;5117196;28;20433;-79
2023/06/01 03:55:30;;;;;;;15.13;12.32;;;;;;;;;;5116569;28;20038;-79
2023/06/01 03:57:56;;;;;;;13.43;11.63;;;;;;;;;;5107984;28;20027;-77
2023/06/01 04:00:22;;;;;;;14.90;11.50;;;;;;;;;;5101894;27;20026;-80
2023/06/01 04:02:52;;;;;;;14.43;11.07;;;;;;;;;;5089423;28;20063;-80
2023/06/01 04:05:18;;;;;;;15.55;11.45;;;;;;;;;;5098897;28;20019;-79
2023/06/01 04:07:46;;;;;;;10.05;8.98;;;;;;;;;;5107755;27;20047;-80
2023/06/01 04:10:13;;;;;;;12.50;10.37;;;;;;;;;;5103588;28;20118;-79
2023/06/01 04:12:39;;;;;;;14.00;10.07;;;;;;;;;;5117906;28;20251;-82
2023/06/01 04:15:05;;;;;;;14.60;10.63;;;;;;;;;;5117408;28;20030;-76
2023/06/01 04:17:30;;;;;;;12.65;11.30;;;;;;;;;;5115678;28;20027;-79
2023/06/01 04:19:56;;;;;;;14.13;12.43;;;;;;;;;;5101923;28;20032;-80
2023/06/01 04:22:21;;;;;;;14.93;12.85;;;;;;;;;;5107775;28;20422;-79
2023/06/01 04:24:47;;;;;;;14.52;12.80;;;;;;;;;;5117718;28;20094;-78
2023/06/01 04:27:15;;;;;;;15.35;12.63;;;;;;;;;;5108515;28;20152;-79
2023/06/01 04:29:43;;;;;;;15.07;13.10;;;;;;;;;;5106934;28;20038;-78
2023/06/01 04:32:09;;;;;;;16.00;12.88;;;;;;;;;;5116097;28;20563;-80
2023/06/01 04:34:35;;;;;;;14.15;12.52;;;;;;;;;;5102858;27;20114;-79
2023/06/01 04:37:00;;;;;;;16.25;12.38;;;;;;;;;;5121846;27;20023;-78
2023/06/01 04:39:27;;;;;;;14.77;11.77;;;;;;;;;;5121063;27;20066;-78
2023/06/01 04:41:55;;;;;;;20.23;15.15;;;;;;;;;;5120141;27;20023;-79
2023/06/01 04:44:21;;;;;;;18.73;14.82;;;;;;;;;;5120514;27;20503;-79
2023/06/01 04:46:49;;;;;;;23.42;13.38;;;;;;;;;;5116914;27;20035;-76
2023/06/01 04:49:15;;;;;;;14.57;12.43;;;;;;;;;;5117486;27;20327;-76
2023/06/01 04:51:40;;;;;;;18.48;12.70;;;;;;;;;;5121675;27;20448;-78
2023/06/01 04:54:07;;;;;;;12.73;11.35;;;;;;;;;;5120603;27;20054;-78
2023/06/01 04:56:32;;;;;;;13.65;12.27;;;;;;;;;;5117267;27;20034;-78
2023/06/01 04:58:58;;;;;;;15.55;12.18;;;;;;;;;;5121876;27;20027;-78
2023/06/01 05:01:29;;;;;;;16.60;12.43;;;;;;;;;;5118714;27;20306;-77
2023/06/01 05:03:55;;;;;;;18.77;13.40;;;;;;;;;;5116572;27;20020;-78
2023/06/01 05:06:21;;;;;;;13.55;12.18;;;;;;;;;;5119735;27;20503;-77
2023/06/01 05:08:47;;;;;;;12.20;11.02;;;;;;;;;;5120287;27;20853;-77
2023/06/01 05:11:13;;;;;;;12.57;10.52;;;;;;;;;;5105523;27;20042;-77
2023/06/01 05:13:38;;;;;;;13.48;11.02;;;;;;;;;;5119667;27;20453;-78
2023/06/01 05:16:04;;;;;;;14.50;10.77;;;;;;;;;;5118657;27;20019;-78
2023/06/01 05:18:30;;;;;;;13.23;10.13;;;;;;;;;;5120698;27;20062;-83
2023/06/01 05:20:56;;;;;;;12.80;11.50;;;;;;;;;;5119442;27;20080;-81
2023/06/01 05:23:21;;;;;;;11.40;10.20;;;;;;;;;;5121300;27;20497;-84
2023/06/01 05:25:47;;;;;;;13.85;10.68;;;;;;;;;;5119556;27;20058;-78
2023/06/01 05:28:12;;;;;;;13.93;11.43;;;;;;;;;;5119845;27;20444;-81
2023/06/01 05:30:37;;;;;;;13.55;11.00;;;;;;;;;;5119645;27;20361;-84
2023/06/01 05:33:03;;;;;;;12.75;10.82;;;;;;;;;;5108629;27;20035;-78
2023/06/01 05:35:29;;;;;;;10.93;9.75;;;;;;;;;;5116165;27;20026;-76
2023/06/01 05:37:54;;;;;;;11.27;10.10;;;;;;;;;;5117057;27;20346;-84
2023/06/01 05:40:19;;;;;;;12.35;9.30;;;;;;;;;;5117971;27;20039;-78
2023/06/01 05:42:45;;;;;;;12.30;9.93;;;;;;;;;;5120300;27;20037;-81
2023/06/01 05:45:10;;;;;;;16.65;8.73;;;;;;;;;;5119330;27;20032;-82
2023/06/01 05:47:36;;;;;;;9.65;8.73;;;;;;;;;;5121103;27;20031;-80
2023/06/01 05:50:01;;;;;;;10.77;9.70;;;;;;;;;;5119395;27;20030;-78
2023/06/01 05:52:27;;;;;;;13.88;9.65;;;;;;;;;;5118933;27;20152;-79
2023/06/01 05:54:53;;;;;;;12.32;10.80;;;;;;;;;;5123224;27;20350;-79
2023/06/01 05:57:19;;;;;;;11.90;10.73;;;;;;;;;;5121169;27;20068;-79
2023/06/01 05:59:45;;;;;;;11.35;10.20;;;;;;;;;;5118134;27;20131;-79
2023/06/01 06:02:11;;;;;;;10.93;9.82;;;;;;;;;;5101564;27;20433;-78
2023/06/01 06:04:36;;;;;;;11.60;10.32;;;;;;;;;;5116599;27;20059;-79
2023/06/01 06:07:02;;;;;;;10.43;9.25;;;;;;;;;;5119220;27;20048;-78
2023/06/01 06:09:27;;;;;;;10.43;9.40;;;;;;;;;;5118450;27;20046;-79
2023/06/01 06:11:52;;;;;;;10.52;9.25;;;;;;;;;;5117032;27;20332;-79
2023/06/01 06:14:18;;;;;;;11.63;9.20;;;;;;;;;;5117269;27;20034;-80
2023/06/01 06:16:43;;;;;;;12.50;10.93;;;;;;;;;;5120054;27;20070;-78
2023/06/01 06:19:09;;;;;;;11.25;10.10;;;;;;;;;;5117893;27;20046;-79
2023/06/01 06:21:35;;;;;;;12.02;9.80;;;;;;;;;;5118952;27;20019;-79
2023/06/01 06:24:01;;;;;;;10.18;9.20;;;;;;;;;;5120547;27;20166;-76
2023/06/01 06:26:29;;;;;;;10.57;9.57;;;;;;;;;;5117752;27;20450;-77
2023/06/01 06:28:54;;;;;;;10.68;9.63;;;;;;;;;;5119638;27;20058;-77
2023/06/01 06:31:20;;;;;;;10.15;9.15;;;;;;;;;;5118946;27;20081;-81
2023/06/01 06:33:46;;;;;;;10.02;9.10;;;;;;;;;;5117396;27;20385;-79
2023/06/01 06:36:11;;;;;;;11.82;9.18;;;;;;;;;;5116958;27;20027;-79
2023/06/01 06:38:36;;;;;;;10.10;9.10;;;;;;;;;;5120592;27;20019;-78
2023/06/01 06:41:02;;;;;;;10.23;9.23;;;;;;;;;;5120959;27;20031;-78
2023/06/01 06:43:27;;;;;;;9.20;8.32;;;;;;;;;;5101894;27;20016;-76
2023/06/01 06:45:53;;;;;;;9.80;8.77;;;;;;;;;;5119358;27;20027;-80
2023/06/01 06:48:18;;;;;;;12.48;8.57;;;;;;;;;;5118886;27;20019;-80
2023/06/01 06:50:44;;;;;;;9.50;8.70;;;;;;;;;;5118203;27;20461;-79
2023/06/01 06:53:10;;;;;;;11.00;8.63;;;;;;;;;;5118841;27;20030;-79
2023/06/01 06:55:35;;;;;;;8.70;7.80;;;;;;;;;;5118623;27;20026;-78
2023/06/01 06:58:01;;;;;;;11.20;8.85;;;;;;;;;;5117332;27;20022;-78
2023/06/01 07:00:27;;;;;;;9.95;7.95;;;;;;;;;;5116337;27;20453;-79
2023/06/01 07:02:52;;;;;;;11.40;8.15;;;;;;;;;;5118972;27;20027;-81
2023/06/01 07:05:17;;;;;;;9.73;7.97;;;;;;;;;;5119473;27;20050;-78
2023/06/01 07:07:43;;;;;;;9.43;8.52;;;;;;;;;;5118834;27;20346;-80
2023/06/01 07:10:08;;;;;;;9.18;7.43;;;;;;;;;;5118613;27;20179;-79
2023/06/01 07:12:34;;;;;;;8.88;7.80;;;;;;;;;;5116325;27;20038;-79
2023/06/01 07:15:00;;;;;;;8.73;7.82;;;;;;;;;;5115595;27;20038;-78
2023/06/01 07:17:26;;;;;;;8.77;7.35;;;;;;;;;;5117014;27;20483;-78
2023/06/01 07:19:51;;;;;;;10.88;7.82;;;;;;;;;;5119848;27;20121;-78
2023/06/01 07:22:17;;;;;;;8.70;7.75;;;;;;;;;;5118653;28;20042;-78
2023/06/01 07:24:42;;;;;;;9.68;7.28;;;;;;;;;;5120014;28;20456;-80
2023/06/01 07:27:07;;;;;;;9.48;7.60;;;;;;;;;;5117260;28;20078;-80
2023/06/01 07:29:33;;;;;;;9.75;6.55;;;;;;;;;;5117942;28;20057;-81
2023/06/01 07:31:59;;;;;;;7.78;7.07;;;;;;;;;;5119313;28;20103;-77
2023/06/01 07:34:25;;;;;;;6.03;5.38;;;;;;;;;;5119254;28;20041;-77
2023/06/01 07:36:50;;;;;;;6.53;5.60;;;;;;;;;;5116455;28;20027;-77
2023/06/01 07:39:16;;;;;;;7.80;5.82;;;;;;;;;;5117942;28;20034;-78
2023/06/01 07:41:42;;;;;;;6.65;5.95;;;;;;;;;;5118649;28;20073;-79
2023/06/01 07:44:08;;;;;;;5.95;5.35;;;;;;;;;;5119468;28;20019;-84
2023/06/01 07:46:33;;;;;;;9.38;5.85;;;;;;;;;;5119677;28;20046;-79
2023/06/01 07:48:59;;;;;;;5.80;5.30;;;;;;;;;;5119433;28;20738;-79
2023/06/01 07:51:24;;;;;;;7.72;5.45;;;;;;;;;;5115398;28;20031;-78
2023/06/01 07:53:49;;;;;;;7.22;5.88;;;;;;;;;;5120594;28;20034;-80
2023/06/01 07:56:15;;;;;;;6.45;5.82;;;;;;;;;;5119508;28;20027;-78
2023/06/01 07:58:40;;;;;;;7.53;5.68;;;;;;;;;;5117808;28;20161;-77
2023/06/01 08:01:06;;;;;;;6.13;5.05;;;;;;;;;;5116334;28;20049;-77
2023/06/01 08:03:33;;;;;;;5.68;5.18;;;;;;;;;;5117807;28;20115;-79
2023/06/01 08:05:59;;;;;;;6.40;4.88;;;;;;;;;;5119333;28;20038;-78
2023/06/01 08:08:25;;;;;;;6.60;5.93;;;;;;;;;;5119134;27;20051;-78
2023/06/01 08:10:51;;;;;;;7.22;5.20;;;;;;;;;;5121344;27;20024;-78
2023/06/01 08:13:18;;;;;;;6.50;5.03;;;;;;;;;;5119767;27;20023;-78
2023/06/01 08:15:47;;;;;;;6.85;4.97;;;;;;;;;;5121528;27;20019;-79
2023/06/01 08:18:12;;;;;;;7.05;5.38;;;;;;;;;;5120249;27;20026;-80
2023/06/01 08:20:38;;;;;;;6.40;5.28;;;;;;;;;;5121275;27;20039;-81
2023/06/01 08:23:03;;;;;;;6.10;5.03;;;;;;;;;;5123338;27;20034;-79
2023/06/01 08:25:29;;;;;;;7.25;4.78;;;;;;;;;;5104485;27;20046;-77
2023/06/01 08:27:54;;;;;;;5.63;5.13;;;;;;;;;;5121643;27;20059;-78
2023/06/01 08:30:20;;;;;;;7.07;5.05;;;;;;;;;;5124504;27;20110;-78
2023/06/01 08:32:45;;;;;;;6.78;5.03;;;;;;;;;;5106104;27;20020;-81
2023/06/01 08:35:10;;;;;;;8.13;4.90;;;;;;;;;;5120798;27;20100;-82
2023/06/01 08:37:36;;;;;;;6.57;4.82;;;;;;;;;;5110546;27;20018;-79
2023/06/01 08:40:04;;;;;;;5.57;4.80;;;;;;;;;;5106236;27;20031;-77
2023/06/01 08:42:33;;;;;;;6.95;4.88;;;;;;;;;;5119245;27;20030;-77
2023/06/01 08:44:58;;;;;;;5.10;4.60;;;;;;;;;;5119727;27;20011;-77
2023/06/01 08:47:24;;;;;;;6.95;4.90;;;;;;;;;;5121268;27;20034;-78
2023/06/01 08:49:50;;;;;;;5.90;4.90;;;;;;;;;;5120604;27;20023;-75
2023/06/01 08:52:18;;;;;;;5.22;4.50;;;;;;;;;;5120136;27;20030;-75
2023/06/01 08:54:44;;;;;;;5.70;5.03;;;;;;;;;;5121068;27;20027;-76
2023/06/01 08:57:10;;;;;;;5.65;5.00;;;;;;;;;;5120109;27;20308;-78
2023/06/01 08:59:36;;;;;;;6.88;4.53;;;;;;;;;;5121836;27;20034;-75
2023/06/01 09:02:02;;;;;;;5.78;5.13;;;;;;;;;;5120855;27;20023;-78
2023/06/01 09:04:27;;;;;;;6.18;4.43;;;;;;;;;;5115078;27;20034;-77
2023/06/01 09:06:53;;;;;;;5.60;5.10;;;;;;;;;;5123907;27;20027;-79
2023/06/01 09:09:18;;;;;;;8.05;5.28;;;;;;;;;;5118330;27;20122;-77
2023/06/01 09:11:44;;;;;;;5.55;5.05;;;;;;;;;;5119218;27;20080;-75
2023/06/01 09:14:22;;;;;;;5.88;5.25;;;;;;;;;;5120290;27;20023;-77
2023/06/01 09:16:48;;;;;;;5.28;4.75;;;;;;;;;;5120512;27;20027;-75
2023/06/01 09:19:14;;;;;;;9.40;5.30;;;;;;;;;;5121703;27;20019;-78
2023/06/01 09:21:39;;;;;;;5.95;5.35;;;;;;;;;;5120461;27;20162;-77
2023/06/01 09:24:18;;;;;;;9.10;5.13;;;;;;;;;;5115839;27;20034;-76
2023/06/01 09:26:47;;;;;;;7.97;5.53;;;;;;;;;;5117964;27;20034;-75
2023/06/01 09:29:12;;;;;;;;;;;;;;;;;;5119933;27;20117;-75
2023/06/01 09:31:39;;;;;;;6.97;6.07;;;;;;;;;;5118745;27;20337;-75
2023/06/01 09:34:05;;;;;;;9.65;8.68;;;;;;;;;;5119481;27;20023;-75
2023/06/01 09:36:30;;;;;;;6.72;5.50;;;;;;;;;;5119245;27;20019;-76
2023/06/01 09:39:00;;;;;;;5.03;4.53;;;;;;;;;;5119902;27;20741;-77
2023/06/01 09:41:25;;;;;;;;;;;;;;;;;;5118457;27;20023;-78
2023/06/01 09:43:51;;;;;;;6.72;5.35;;;;;;;;;;5119724;27;19991;-78
2023/06/01 09:46:17;;;;;;;6.53;5.93;;;;;;;;;;5119034;27;20034;-76
2023/06/01 09:48:44;;;;;;;6.20;5.32;;;;;;;;;;5118938;27;20027;-77
2023/06/01 09:51:23;;;;;;;7.82;5.00;;;;;;;;;;5119690;27;20042;-76
2023/06/01 09:53:48;;;;;;;;;;;;;;;;;;5119358;27;20034;-77
2023/06/01 09:56:14;;;;;;;7.40;4.53;;;;;;;;;;5117041;27;19907;-77
2023/06/01 09:58:40;;;;;;;7.03;5.07;;;;;;;;;;5117692;27;20035;-80
2023/06/01 10:01:08;;;;;;;5.60;4.65;;;;;;;;;;5117968;27;20039;-77
2023/06/01 10:03:35;;;;;;;9.48;5.38;;;;;;;;;;5117796;27;20498;-78
2023/06/01 10:06:02;;;;;;;5.50;4.97;;;;;;;;;;5120064;27;20019;-78
2023/06/01 10:08:27;;;;;;;6.75;5.10;;;;;;;;;;5119714;27;20047;-75
2023/06/01 10:10:53;;;;;;;5.80;5.30;;;;;;;;;;5116548;27;20034;-76
2023/06/01 10:13:22;;;;;;;8.77;4.65;;;;;;;;;;5118098;27;20133;-77
2023/06/01 10:15:47;;;;;;;5.65;4.40;;;;;;;;;;5116330;27;20031;-76
2023/06/01 10:18:15;;;;;;;6.57;4.85;;;;;;;;;;5116408;27;20028;-77
2023/06/01 10:20:40;;;;;;;7.85;4.75;;;;;;;;;;5113773;27;20119;-78
2023/06/01 10:23:06;;;;;;;6.40;5.30;;;;;;;;;;5120333;27;20066;-78
2023/06/01 10:25:40;;;;;;;7.70;5.60;;;;;;;;;;5118459;27;20502;-76
2023/06/01 10:28:07;;;;;;;6.50;5.05;;;;;;;;;;5118721;27;20027;-76
2023/06/01 10:30:33;;;;;;;5.60;4.75;;;;;;;;;;5117670;27;20814;-77
2023/06/01 10:32:58;;;;;;;5.38;4.88;;;;;;;;;;5113745;27;20401;-77
2023/06/01 10:35:26;;;;;;;9.52;5.28;;;;;;;;;;5117912;27;20034;-76
2023/06/01 10:38:07;;;;;;;8.18;4.82;;;;;;;;;;5119437;27;20152;-78
2023/06/01 10:40:36;;;;;;;8.45;4.88;;;;;;;;;;5117498;27;20035;-77
2023/06/01 10:43:02;;;;;;;7.15;4.75;;;;;;;;;;5118550;27;20031;-77
2023/06/01 10:45:33;;;;;;;7.28;4.97;;;;;;;;;;5117321;27;20827;-76
2023/06/01 10:47:58;;;;;;;5.07;4.57;;;;;;;;;;5114673;27;20027;-76
2023/06/01 10:50:24;;;;;;;7.45;5.15;;;;;;;;;;5119664;27;20038;-75
2023/06/01 10:52:50;;;;;;;4.50;4.07;;;;;;;;;;5117437;27;20145;-76
2023/06/01 10:55:16;;;;;;;5.15;4.65;;;;;;;;;;5118725;27;20034;-77
2023/06/01 10:57:44;;;;;;;5.43;4.75;;;;;;;;;;5116657;27;20031;-77
2023/06/01 11:00:13;;;;;;;7.00;4.93;;;;;;;;;;5116619;27;20043;-77
2023/06/01 11:02:44;;;;;;;6.65;4.63;;;;;;;;;;5121414;27;20026;-76
2023/06/01 11:05:28;;;;;;;12.25;4.38;;;;;;;;;;5117088;27;20174;-78
2023/06/01 11:07:53;;;;;;;6.43;4.55;;;;;;;;;;5114049;27;20051;-76
2023/06/01 11:10:37;;;;;;;5.43;4.28;;;;;;;;;;5117898;27;20031;-77
2023/06/01 11:13:11;;;;;;;6.43;4.63;;;;;;;;;;5116624;27;20040;-76
2023/06/01 11:15:38;;;;;;;8.13;4.57;;;;;;;;;;5113510;27;20031;-77
2023/06/01 11:18:23;;;;;;;5.30;4.78;;;;;;;;;;5119981;27;20037;-76
2023/06/01 11:20:49;;;;;;;6.90;4.65;;;;;;;;;;5119683;27;21445;-76
2023/06/01 11:23:14;;;;;;;5.43;4.68;;;;;;;;;;5117931;28;20041;-77
2023/06/01 11:25:41;;;;;;;6.38;4.95;;;;;;;;;;5117532;28;20019;-77
2023/06/01 11:28:08;;;;;;;7.80;4.38;;;;;;;;;;5119219;28;20015;-77
2023/06/01 11:30:35;;;;;;;5.18;4.68;;;;;;;;;;5118412;28;20035;-77
2023/06/01 11:33:00;;;;;;;5.22;4.72;;;;;;;;;;5119638;28;20452;-78
2023/06/01 11:35:27;;;;;;;5.55;4.40;;;;;;;;;;5118080;28;20019;-76
2023/06/01 11:37:54;;;;;;;9.23;4.90;;;;;;;;;;5117712;28;20027;-77
2023/06/01 11:40:20;;;;;;;5.00;4.50;;;;;;;;;;5117047;28;20027;-76
2023/06/01 11:42:46;;;;;;;7.13;4.63;;;;;;;;;;5119910;27;20038;-74
2023/06/01 11:45:14;;;;;;;6.05;4.80;;;;;;;;;;5124248;27;20030;-76
2023/06/01 11:47:39;;;;;;;5.28;4.35;;;;;;;;;;5123314;27;20019;-77
2023/06/01 11:50:05;;;;;;;6.00;4.25;;;;;;;;;;5122214;27;20107;-76
2023/06/01 11:52:30;;;;;;;5.15;4.68;;;;;;;;;;5122094;27;20031;-76
2023/06/01 11:55:01;;;;;;;4.85;4.07;;;;;;;;;;5123893;27;21468;-77
2023/06/01 11:57:27;;;;;;;5.07;4.20;;;;;;;;;;5121539;27;20031;-76
2023/06/01 11:59:52;;;;;;;5.20;4.00;;;;;;;;;;5122679;27;20350;-75
2023/06/01 12:02:26;;;;;;;6.32;4.45;;;;;;;;;;5120731;27;20099;-77
2023/06/01 12:04:58;;;;;;;4.95;3.90;;;;;;;;;;5119461;27;20058;-77
2023/06/01 12:07:24;;;;;;;5.75;4.45;;;;;;;;;;5123322;27;20047;-75
2023/06/01 12:09:51;;;;;;;6.78;5.05;;;;;;;;;;5119041;27;20034;-76
2023/06/01 12:12:16;;;;;;;5.78;4.30;;;;;;;;;;5121170;27;20038;-77
2023/06/01 12:14:43;;;;;;;5.95;4.25;;;;;;;;;;5120173;27;20023;-77
2023/06/01 12:17:10;;;;;;;5.05;4.55;;;;;;;;;;5121940;27;20050;-76
2023/06/01 12:19:43;;;;;;;5.30;4.80;;;;;;;;;;5119448;27;20066;-75
2023/06/01 12:22:09;;;;;;;4.78;4.28;;;;;;;;;;5120734;27;20062;-76
2023/06/01 12:24:34;;;;;;;7.03;4.45;;;;;;;;;;5121749;27;20077;-77
2023/06/01 12:27:01;;;;;;;6.25;4.32;;;;;;;;;;5120438;27;20034;-75
2023/06/01 12:29:39;;;;;;;4.53;4.10;;;;;;;;;;5122262;27;20406;-76
2023/06/01 12:32:05;;;;;;;5.53;4.50;;;;;;;;;;5120446;27;20404;-76
2023/06/01 12:34:30;;;;;;;5.60;3.83;;;;;;;;;;5120528;27;20027;-75
2023/06/01 12:36:55;;;;;;;6.20;4.28;;;;;;;;;;5120580;27;20066;-77
2023/06/01 12:39:36;;;;;;;4.60;4.07;;;;;;;;;;5122763;27;21101;-76
2023/06/01 12:42:03;;;;;;;6.57;3.80;;;;;;;;;;5119040;27;20463;-76
2023/06/01 12:44:29;;;;;;;8.10;4.43;;;;;;;;;;5121397;27;20019;-75
2023/06/01 12:47:01;;;;;;;5.13;4.63;;;;;;;;;;5118730;27;20042;-75
2023/06/01 12:49:26;;;;;;;4.85;4.18;;;;;;;;;;5121641;27;20112;-75
2023/06/01 12:51:52;;;;;;;7.13;4.88;;;;;;;;;;5121756;27;20031;-76
2023/06/01 12:54:17;;;;;;;4.55;4.13;;;;;;;;;;5118810;27;20015;-78
2023/06/01 12:56:43;;;;;;;5.35;4.10;;;;;;;;;;5122401;27;20015;-76
2023/06/01 12:59:08;;;;;;;6.03;4.45;;;;;;;;;;5120341;27;20350;-77
2023/06/01 13:01:34;;;;;;;5.50;4.60;;;;;;;;;;5121400;27;20081;-78
2023/06/01 13:04:00;;;;;;;6.05;5.03;;;;;;;;;;5119404;27;20467;-78
2023/06/01 13:06:25;;;;;;;4.85;4.45;;;;;;;;;;5122975;27;20039;-77
2023/06/01 13:08:52;;;;;;;7.82;4.70;;;;;;;;;;5119735;27;20083;-77
2023/06/01 13:11:17;;;;;;;5.22;4.72;;;;;;;;;;5121087;27;20118;-76
2023/06/01 13:13:43;;;;;;;6.95;4.65;;;;;;;;;;5116466;27;20137;-78
2023/06/01 13:16:08;;;;;;;11.05;4.90;;;;;;;;;;5118830;27;20444;-77
2023/06/01 13:18:33;;;;;;;5.63;4.13;;;;;;;;;;5109538;27;20031;-75
2023/06/01 13:20:59;;;;;;;5.85;4.85;;;;;;;;;;5106277;27;20035;-78
2023/06/01 13:23:24;;;;;;;5.22;4.50;;;;;;;;;;5099272;27;20035;-78
2023/06/01 13:25:50;;;;;;;8.82;4.68;;;;;;;;;;5116707;27;20034;-76
2023/06/01 13:28:15;;;;;;;4.93;4.43;;;;;;;;;;5103218;27;20532;-77
2023/06/01 13:30:42;;;;;;;4.68;4.15;;;;;;;;;;5120126;27;20027;-77
2023/06/01 13:33:07;;;;;;;4.78;4.38;;;;;;;;;;5112925;27;20037;-75
2023/06/01 13:35:33;;;;;;;7.22;4.60;;;;;;;;;;5114529;27;20031;-79
2023/06/01 13:37:58;;;;;;;8.07;5.22;;;;;;;;;;5103419;27;20015;-78
2023/06/01 13:40:24;;;;;;;5.32;4.32;;;;;;;;;;5123326;27;20472;-79
2023/06/01 13:42:50;;;;;;;6.88;4.72;;;;;;;;;;5119407;27;20034;-77
2023/06/01 13:45:16;;;;;;;4.82;4.32;;;;;;;;;;5106912;27;24624;-79
2023/06/01 13:47:42;;;;;;;6.07;4.70;;;;;;;;;;5091527;27;20031;-79
2023/06/01 13:50:08;;;;;;;6.47;5.07;;;;;;;;;;5119381;27;20035;-78
2023/06/01 13:52:33;;;;;;;5.80;4.72;;;;;;;;;;5118419;27;20023;-79
2023/06/01 13:54:58;;;;;;;5.75;4.47;;;;;;;;;;5119709;27;20031;-79
2023/06/01 13:57:24;;;;;;;4.47;4.07;;;;;;;;;;5110611;27;20034;-79
2023/06/01 13:59:49;;;;;;;4.75;4.28;;;;;;;;;;5109591;27;20023;-78
2023/06/01 14:02:14;;;;;;;7.53;4.68;;;;;;;;;;5120015;27;20031;-80
2023/06/01 14:04:40;;;;;;;6.60;4.60;;;;;;;;;;5115697;27;20034;-81
2023/06/01 14:07:05;;;;;;;6.32;4.82;;;;;;;;;;5120512;27;20047;-80
2023/06/01 14:09:31;;;;;;;5.65;5.15;;;;;;;;;;5107844;27;20050;-81
2023/06/01 14:11:56;;;;;;;7.60;5.60;;;;;;;;;;5105274;27;20030;-79
2023/06/01 14:14:21;;;;;;;8.07;5.00;;;;;;;;;;5112474;27;20038;-80
2023/06/01 14:16:47;;;;;;;6.47;5.38;;;;;;;;;;5117873;27;20103;-79
2023/06/01 14:19:12;;;;;;;7.97;5.63;;;;;;;;;;5100528;27;21442;-77
2023/06/01 14:21:38;;;;;;;6.95;5.25;;;;;;;;;;5110586;27;20068;-76
2023/06/01 14:24:03;;;;;;;7.07;5.15;;;;;;;;;;5102911;27;20106;-77
2023/06/01 14:26:29;;;;;;;6.22;5.03;;;;;;;;;;5099315;27;20020;-77
2023/06/01 14:28:55;;;;;;;6.90;5.35;;;;;;;;;;5104500;27;20382;-80
2023/06/01 14:31:20;;;;;;;5.97;5.10;;;;;;;;;;5103066;27;20038;-77